sensor_id;sensor_type;location;lat;lon;timestamp;temperature;humidity
14850;DHT22;7517;48.400;11.770;2023-10-31T00:01:31;16.80;76.60
14850;DHT22;7517;48.400;11.770;2023-10-31T00:03:58;16.80;76.90
14850;DHT22;7517;48.400;11.770;2023-10-31T00:06:25;16.80;77.00
14850;DHT22;7517;48.400;11.770;2023-10-31T00:08:52;16.70;76.90
14850;DHT22;7517;48.400;11.770;2023-10-31T00:11:20;16.70;76.90
14850;DHT22;7517;48.400;11.770;2023-10-31T00:13:48;16.70;77.10
14850;DHT22;7517;48.400;11.770;2023-10-31T00:16:15;16.70;77.00
14850;DHT22;7517;48.400;11.770;2023-10-31T00:18:43;16.60;76.90
14850;DHT22;7517;48.400;11.770;2023-10-31T00:21:10;16.60;77.00
14850;DHT22;7517;48.400;11.770;2023-10-31T00:23:43;16.60;77.10
14850;DHT22;7517;48.400;11.770;2023-10-31T00:26:10;16.50;77.40
14850;DHT22;7517;48.400;11.770;2023-10-31T00:28:38;16.50;77.40
14850;DHT22;7517;48.400;11.770;2023-10-31T00:31:05;16.50;77.50
14850;DHT22;7517;48.400;11.770;2023-10-31T00:33:34;16.50;77.60
14850;DHT22;7517;48.400;11.770;2023-10-31T00:36:03;16.40;77.70
14850;DHT22;7517;48.400;11.770;2023-10-31T00:38:31;16.40;78.00
14850;DHT22;7517;48.400;11.770;2023-10-31T00:40:58;16.40;78.00
14850;DHT22;7517;48.400;11.770;2023-10-31T00:43:26;16.40;78.00
14850;DHT22;7517;48.400;11.770;2023-10-31T00:45:53;16.30;78.00
14850;DHT22;7517;48.400;11.770;2023-10-31T00:48:20;16.30;78.00
14850;DHT22;7517;48.400;11.770;2023-10-31T00:50:47;16.30;78.00
14850;DHT22;7517;48.400;11.770;2023-10-31T00:53:16;16.30;78.20
14850;DHT22;7517;48.400;11.770;2023-10-31T00:55:43;16.20;78.10
14850;DHT22;7517;48.400;11.770;2023-10-31T00:58:11;16.20;78.10
14850;DHT22;7517;48.400;11.770;2023-10-31T01:00:38;16.20;77.30
14850;DHT22;7517;48.400;11.770;2023-10-31T01:03:06;16.10;78.20
14850;DHT22;7517;48.400;11.770;2023-10-31T01:05:33;16.10;78.30
14850;DHT22;7517;48.400;11.770;2023-10-31T01:08:00;16.10;78.30
14850;DHT22;7517;48.400;11.770;2023-10-31T01:10:29;16.10;78.20
14850;DHT22;7517;48.400;11.770;2023-10-31T01:12:56;16.00;78.00
14850;DHT22;7517;48.400;11.770;2023-10-31T01:15:23;16.00;78.00
14850;DHT22;7517;48.400;11.770;2023-10-31T01:17:51;16.00;78.10
14850;DHT22;7517;48.400;11.770;2023-10-31T01:20:18;16.00;78.30
14850;DHT22;7517;48.400;11.770;2023-10-31T01:22:45;15.90;78.20
14850;DHT22;7517;48.400;11.770;2023-10-31T01:25:13;15.90;78.10
14850;DHT22;7517;48.400;11.770;2023-10-31T01:27:41;15.90;78.00
14850;DHT22;7517;48.400;11.770;2023-10-31T01:30:10;15.90;78.00
14850;DHT22;7517;48.400;11.770;2023-10-31T01:32:39;15.90;78.20
14850;DHT22;7517;48.400;11.770;2023-10-31T01:35:07;15.80;78.10
14850;DHT22;7517;48.400;11.770;2023-10-31T01:37:34;15.80;78.00
14850;DHT22;7517;48.400;11.770;2023-10-31T01:40:00;15.80;78.00
14850;DHT22;7517;48.400;11.770;2023-10-31T01:42:28;15.70;77.70
14850;DHT22;7517;48.400;11.770;2023-10-31T01:44:56;15.70;78.50
14850;DHT22;7517;48.400;11.770;2023-10-31T01:47:24;15.60;77.90
14850;DHT22;7517;48.400;11.770;2023-10-31T01:49:51;15.60;78.90
14850;DHT22;7517;48.400;11.770;2023-10-31T01:52:20;15.60;78.30
14850;DHT22;7517;48.400;11.770;2023-10-31T01:54:47;15.60;78.40
14850;DHT22;7517;48.400;11.770;2023-10-31T01:57:14;15.50;78.50
14850;DHT22;7517;48.400;11.770;2023-10-31T01:59:42;15.50;78.40
14850;DHT22;7517;48.400;11.770;2023-10-31T02:02:11;15.50;78.30
14850;DHT22;7517;48.400;11.770;2023-10-31T02:04:38;15.50;78.40
14850;DHT22;7517;48.400;11.770;2023-10-31T02:07:05;15.40;78.20
14850;DHT22;7517;48.400;11.770;2023-10-31T02:09:33;15.40;78.10
14850;DHT22;7517;48.400;11.770;2023-10-31T02:12:00;15.40;78.30
14850;DHT22;7517;48.400;11.770;2023-10-31T02:14:27;15.40;78.20
14850;DHT22;7517;48.400;11.770;2023-10-31T02:16:55;15.40;78.30
14850;DHT22;7517;48.400;11.770;2023-10-31T02:19:23;15.40;78.40
14850;DHT22;7517;48.400;11.770;2023-10-31T02:21:52;15.40;78.50
14850;DHT22;7517;48.400;11.770;2023-10-31T02:24:19;15.40;78.60
14850;DHT22;7517;48.400;11.770;2023-10-31T02:26:46;15.40;78.50
14850;DHT22;7517;48.400;11.770;2023-10-31T02:29:13;15.40;78.30
14850;DHT22;7517;48.400;11.770;2023-10-31T02:31:40;15.30;78.20
14850;DHT22;7517;48.400;11.770;2023-10-31T02:34:08;15.30;78.10
14850;DHT22;7517;48.400;11.770;2023-10-31T02:36:35;15.30;78.20
14850;DHT22;7517;48.400;11.770;2023-10-31T02:39:05;15.30;78.20
14850;DHT22;7517;48.400;11.770;2023-10-31T02:41:33;15.30;78.50
14850;DHT22;7517;48.400;11.770;2023-10-31T02:44:00;15.30;78.50
14850;DHT22;7517;48.400;11.770;2023-10-31T02:46:27;15.30;78.50
14850;DHT22;7517;48.400;11.770;2023-10-31T02:48:54;15.30;78.50
14850;DHT22;7517;48.400;11.770;2023-10-31T02:51:22;15.30;78.60
14850;DHT22;7517;48.400;11.770;2023-10-31T02:53:49;15.20;79.30
14850;DHT22;7517;48.400;11.770;2023-10-31T02:56:19;15.30;78.60
14850;DHT22;7517;48.400;11.770;2023-10-31T02:58:46;15.30;78.50
14850;DHT22;7517;48.400;11.770;2023-10-31T03:01:13;15.30;78.40
14850;DHT22;7517;48.400;11.770;2023-10-31T03:03:40;15.30;78.50
14850;DHT22;7517;48.400;11.770;2023-10-31T03:06:07;15.30;78.30
14850;DHT22;7517;48.400;11.770;2023-10-31T03:08:35;15.20;78.20
14850;DHT22;7517;48.400;11.770;2023-10-31T03:11:02;15.20;78.40
14850;DHT22;7517;48.400;11.770;2023-10-31T03:13:31;15.30;78.60
14850;DHT22;7517;48.400;11.770;2023-10-31T03:15:58;15.30;78.60
14850;DHT22;7517;48.400;11.770;2023-10-31T03:18:26;15.30;78.60
14850;DHT22;7517;48.400;11.770;2023-10-31T03:20:54;15.30;78.70
14850;DHT22;7517;48.400;11.770;2023-10-31T03:23:21;15.30;78.70
14850;DHT22;7517;48.400;11.770;2023-10-31T03:25:49;15.20;78.70
14850;DHT22;7517;48.400;11.770;2023-10-31T03:28:20;15.20;78.70
14850;DHT22;7517;48.400;11.770;2023-10-31T03:30:51;15.20;78.70
14850;DHT22;7517;48.400;11.770;2023-10-31T03:33:18;15.20;78.60
14850;DHT22;7517;48.400;11.770;2023-10-31T03:35:45;15.20;78.50
14850;DHT22;7517;48.400;11.770;2023-10-31T03:38:12;15.20;78.50
14850;DHT22;7517;48.400;11.770;2023-10-31T03:40:40;15.20;78.60
14850;DHT22;7517;48.400;11.770;2023-10-31T03:43:08;15.20;78.60
14850;DHT22;7517;48.400;11.770;2023-10-31T03:45:35;15.20;79.40
14850;DHT22;7517;48.400;11.770;2023-10-31T03:48:04;15.20;78.50
14850;DHT22;7517;48.400;11.770;2023-10-31T03:50:30;15.20;78.40
14850;DHT22;7517;48.400;11.770;2023-10-31T03:52:57;15.20;78.40
14850;DHT22;7517;48.400;11.770;2023-10-31T03:55:25;15.30;78.50
14850;DHT22;7517;48.400;11.770;2023-10-31T03:57:52;15.30;78.40
14850;DHT22;7517;48.400;11.770;2023-10-31T04:00:19;15.20;78.50
14850;DHT22;7517;48.400;11.770;2023-10-31T04:02:46;15.20;78.50
14850;DHT22;7517;48.400;11.770;2023-10-31T04:05:15;15.20;78.40
14850;DHT22;7517;48.400;11.770;2023-10-31T04:07:43;15.30;78.50
14850;DHT22;7517;48.400;11.770;2023-10-31T04:10:11;15.30;78.50
14850;DHT22;7517;48.400;11.770;2023-10-31T04:12:38;15.30;78.40
14850;DHT22;7517;48.400;11.770;2023-10-31T04:15:07;15.30;78.20
14850;DHT22;7517;48.400;11.770;2023-10-31T04:17:35;15.30;78.10
14850;DHT22;7517;48.400;11.770;2023-10-31T04:20:03;15.30;78.20
14850;DHT22;7517;48.400;11.770;2023-10-31T04:22:32;15.30;78.30
14850;DHT22;7517;48.400;11.770;2023-10-31T04:24:59;15.30;78.30
14850;DHT22;7517;48.400;11.770;2023-10-31T04:27:26;15.30;78.30
14850;DHT22;7517;48.400;11.770;2023-10-31T04:29:54;15.30;78.90
14850;DHT22;7517;48.400;11.770;2023-10-31T04:32:21;15.30;78.10
14850;DHT22;7517;48.400;11.770;2023-10-31T04:34:48;15.30;78.60
14850;DHT22;7517;48.400;11.770;2023-10-31T04:37:15;15.30;77.80
14850;DHT22;7517;48.400;11.770;2023-10-31T04:39:44;15.30;77.90
14850;DHT22;7517;48.400;11.770;2023-10-31T04:42:11;15.30;77.90
14850;DHT22;7517;48.400;11.770;2023-10-31T04:44:38;15.30;77.90
14850;DHT22;7517;48.400;11.770;2023-10-31T04:47:07;15.30;77.80
14850;DHT22;7517;48.400;11.770;2023-10-31T04:49:35;15.30;77.80
14850;DHT22;7517;48.400;11.770;2023-10-31T04:52:02;15.30;77.70
14850;DHT22;7517;48.400;11.770;2023-10-31T04:54:30;15.30;77.90
14850;DHT22;7517;48.400;11.770;2023-10-31T04:56:59;15.30;78.10
14850;DHT22;7517;48.400;11.770;2023-10-31T04:59:27;15.40;78.20
14850;DHT22;7517;48.400;11.770;2023-10-31T05:01:54;15.30;78.10
14850;DHT22;7517;48.400;11.770;2023-10-31T05:04:21;15.30;78.00
14850;DHT22;7517;48.400;11.770;2023-10-31T05:06:48;15.30;78.10
14850;DHT22;7517;48.400;11.770;2023-10-31T05:09:15;15.40;78.20
14850;DHT22;7517;48.400;11.770;2023-10-31T05:11:43;15.40;78.30
14850;DHT22;7517;48.400;11.770;2023-10-31T05:14:12;15.40;78.30
14850;DHT22;7517;48.400;11.770;2023-10-31T05:16:40;15.40;78.40
14850;DHT22;7517;48.400;11.770;2023-10-31T05:19:07;15.40;78.40
14850;DHT22;7517;48.400;11.770;2023-10-31T05:21:35;15.40;78.30
14850;DHT22;7517;48.400;11.770;2023-10-31T05:24:03;15.40;78.40
14850;DHT22;7517;48.400;11.770;2023-10-31T05:26:30;15.40;78.50
14850;DHT22;7517;48.400;11.770;2023-10-31T05:28:58;15.40;78.50
14850;DHT22;7517;48.400;11.770;2023-10-31T05:31:27;15.40;78.60
14850;DHT22;7517;48.400;11.770;2023-10-31T05:33:54;15.40;78.60
14850;DHT22;7517;48.400;11.770;2023-10-31T05:36:22;15.50;78.70
14850;DHT22;7517;48.400;11.770;2023-10-31T05:38:51;15.40;78.60
14850;DHT22;7517;48.400;11.770;2023-10-31T05:41:18;15.40;78.60
14850;DHT22;7517;48.400;11.770;2023-10-31T05:43:46;15.50;78.80
14850;DHT22;7517;48.400;11.770;2023-10-31T05:46:13;15.40;78.80
14850;DHT22;7517;48.400;11.770;2023-10-31T05:48:43;15.50;79.00
14850;DHT22;7517;48.400;11.770;2023-10-31T05:51:12;15.50;78.90
14850;DHT22;7517;48.400;11.770;2023-10-31T05:53:41;15.50;78.90
14850;DHT22;7517;48.400;11.770;2023-10-31T05:56:10;15.50;78.90
14850;DHT22;7517;48.400;11.770;2023-10-31T05:58:38;15.50;78.90
14850;DHT22;7517;48.400;11.770;2023-10-31T06:01:06;15.50;79.50
14850;DHT22;7517;48.400;11.770;2023-10-31T06:03:33;15.50;78.90
14850;DHT22;7517;48.400;11.770;2023-10-31T06:06:02;15.50;78.90
14850;DHT22;7517;48.400;11.770;2023-10-31T06:08:30;15.50;78.80
14850;DHT22;7517;48.400;11.770;2023-10-31T06:10:58;15.50;78.70
14850;DHT22;7517;48.400;11.770;2023-10-31T06:13:26;15.50;78.70
14850;DHT22;7517;48.400;11.770;2023-10-31T06:15:54;15.40;78.70
14850;DHT22;7517;48.400;11.770;2023-10-31T06:18:21;15.40;78.70
14850;DHT22;7517;48.400;11.770;2023-10-31T06:20:49;15.40;78.70
14850;DHT22;7517;48.400;11.770;2023-10-31T06:23:18;15.40;78.40
14850;DHT22;7517;48.400;11.770;2023-10-31T06:25:45;15.40;78.30
14850;DHT22;7517;48.400;11.770;2023-10-31T06:28:13;15.40;78.60
14850;DHT22;7517;48.400;11.770;2023-10-31T06:30:40;15.40;78.80
14850;DHT22;7517;48.400;11.770;2023-10-31T06:33:07;15.40;78.90
14850;DHT22;7517;48.400;11.770;2023-10-31T06:35:36;15.40;79.10
14850;DHT22;7517;48.400;11.770;2023-10-31T06:38:03;15.30;79.10
14850;DHT22;7517;48.400;11.770;2023-10-31T06:40:31;15.30;79.10
14850;DHT22;7517;48.400;11.770;2023-10-31T06:42:59;15.30;79.10
14850;DHT22;7517;48.400;11.770;2023-10-31T06:45:26;15.30;79.20
14850;DHT22;7517;48.400;11.770;2023-10-31T06:47:54;15.30;79.30
14850;DHT22;7517;48.400;11.770;2023-10-31T06:50:21;15.30;79.20
14850;DHT22;7517;48.400;11.770;2023-10-31T06:52:48;15.30;79.10
14850;DHT22;7517;48.400;11.770;2023-10-31T06:55:16;15.30;79.30
14850;DHT22;7517;48.400;11.770;2023-10-31T06:57:44;15.20;79.40
14850;DHT22;7517;48.400;11.770;2023-10-31T07:00:12;15.20;79.70
14850;DHT22;7517;48.400;11.770;2023-10-31T07:02:40;15.20;79.60
14850;DHT22;7517;48.400;11.770;2023-10-31T07:05:07;15.20;79.60
14850;DHT22;7517;48.400;11.770;2023-10-31T07:07:34;15.20;79.50
14850;DHT22;7517;48.400;11.770;2023-10-31T07:10:02;15.20;79.60
14850;DHT22;7517;48.400;11.770;2023-10-31T07:12:29;15.20;79.40
14850;DHT22;7517;48.400;11.770;2023-10-31T07:14:58;15.20;79.50
14850;DHT22;7517;48.400;11.770;2023-10-31T07:17:26;15.20;79.50
14850;DHT22;7517;48.400;11.770;2023-10-31T07:19:53;15.10;79.50
14850;DHT22;7517;48.400;11.770;2023-10-31T07:22:20;15.20;79.50
14850;DHT22;7517;48.400;11.770;2023-10-31T07:24:50;15.10;79.30
14850;DHT22;7517;48.400;11.770;2023-10-31T07:27:17;15.10;79.40
14850;DHT22;7517;48.400;11.770;2023-10-31T07:29:44;15.10;79.50
14850;DHT22;7517;48.400;11.770;2023-10-31T07:32:14;15.10;79.40
14850;DHT22;7517;48.400;11.770;2023-10-31T07:34:41;15.10;79.50
14850;DHT22;7517;48.400;11.770;2023-10-31T07:37:09;15.10;79.70
14850;DHT22;7517;48.400;11.770;2023-10-31T07:39:37;15.10;79.90
14850;DHT22;7517;48.400;11.770;2023-10-31T07:42:04;15.10;79.90
14850;DHT22;7517;48.400;11.770;2023-10-31T07:44:32;15.10;79.90
14850;DHT22;7517;48.400;11.770;2023-10-31T07:46:59;15.10;79.90
14850;DHT22;7517;48.400;11.770;2023-10-31T07:49:28;15.10;79.80
14850;DHT22;7517;48.400;11.770;2023-10-31T07:51:55;15.10;79.70
14850;DHT22;7517;48.400;11.770;2023-10-31T07:54:22;15.10;79.80
14850;DHT22;7517;48.400;11.770;2023-10-31T07:56:50;15.10;80.60
14850;DHT22;7517;48.400;11.770;2023-10-31T07:59:17;15.20;80.10
14850;DHT22;7517;48.400;11.770;2023-10-31T08:01:44;15.10;80.10
14850;DHT22;7517;48.400;11.770;2023-10-31T08:04:14;15.20;80.10
14850;DHT22;7517;48.400;11.770;2023-10-31T08:06:44;15.20;80.00
14850;DHT22;7517;48.400;11.770;2023-10-31T08:09:12;15.20;80.20
14850;DHT22;7517;48.400;11.770;2023-10-31T08:11:39;15.20;80.10
14850;DHT22;7517;48.400;11.770;2023-10-31T08:14:06;15.30;80.10
14850;DHT22;7517;48.400;11.770;2023-10-31T08:16:33;15.30;79.90
14850;DHT22;7517;48.400;11.770;2023-10-31T08:19:01;15.30;79.60
14850;DHT22;7517;48.400;11.770;2023-10-31T08:21:28;15.30;79.60
14850;DHT22;7517;48.400;11.770;2023-10-31T08:24:02;15.30;79.50
14850;DHT22;7517;48.400;11.770;2023-10-31T08:26:30;15.30;79.30
14850;DHT22;7517;48.400;11.770;2023-10-31T08:28:57;15.30;79.20
14850;DHT22;7517;48.400;11.770;2023-10-31T08:31:25;15.30;79.20
14850;DHT22;7517;48.400;11.770;2023-10-31T08:33:52;15.30;78.90
14850;DHT22;7517;48.400;11.770;2023-10-31T08:36:19;15.30;78.80
14850;DHT22;7517;48.400;11.770;2023-10-31T08:38:46;15.30;78.80
14850;DHT22;7517;48.400;11.770;2023-10-31T08:41:16;15.30;78.80
14850;DHT22;7517;48.400;11.770;2023-10-31T08:43:46;15.30;78.40
14850;DHT22;7517;48.400;11.770;2023-10-31T08:46:13;15.30;78.40
14850;DHT22;7517;48.400;11.770;2023-10-31T08:48:40;15.30;78.30
14850;DHT22;7517;48.400;11.770;2023-10-31T08:51:08;15.30;78.50
14850;DHT22;7517;48.400;11.770;2023-10-31T08:53:35;15.30;78.70
14850;DHT22;7517;48.400;11.770;2023-10-31T08:56:02;15.30;78.70
14850;DHT22;7517;48.400;11.770;2023-10-31T08:58:32;15.30;78.50
14850;DHT22;7517;48.400;11.770;2023-10-31T09:00:59;15.30;78.30
14850;DHT22;7517;48.400;11.770;2023-10-31T09:03:27;15.30;78.30
14850;DHT22;7517;48.400;11.770;2023-10-31T09:05:54;15.30;78.50
14850;DHT22;7517;48.400;11.770;2023-10-31T09:08:22;15.30;78.40
14850;DHT22;7517;48.400;11.770;2023-10-31T09:10:49;15.30;79.00
14850;DHT22;7517;48.400;11.770;2023-10-31T09:13:16;15.40;78.40
14850;DHT22;7517;48.400;11.770;2023-10-31T09:15:45;15.40;78.20
14850;DHT22;7517;48.400;11.770;2023-10-31T09:18:12;15.40;77.80
14850;DHT22;7517;48.400;11.770;2023-10-31T09:20:40;15.40;78.10
14850;DHT22;7517;48.400;11.770;2023-10-31T09:23:07;15.40;78.00
14850;DHT22;7517;48.400;11.770;2023-10-31T09:25:34;15.40;77.80
14850;DHT22;7517;48.400;11.770;2023-10-31T09:28:02;15.40;77.70
14850;DHT22;7517;48.400;11.770;2023-10-31T09:30:30;15.40;77.60
14850;DHT22;7517;48.400;11.770;2023-10-31T09:32:59;15.40;77.60
14850;DHT22;7517;48.400;11.770;2023-10-31T09:35:26;15.40;77.80
14850;DHT22;7517;48.400;11.770;2023-10-31T09:37:53;15.40;77.70
14850;DHT22;7517;48.400;11.770;2023-10-31T09:40:22;15.40;78.00
14850;DHT22;7517;48.400;11.770;2023-10-31T09:42:51;15.50;77.80
14850;DHT22;7517;48.400;11.770;2023-10-31T09:45:18;15.50;77.80
14850;DHT22;7517;48.400;11.770;2023-10-31T09:47:46;15.50;77.60
14850;DHT22;7517;48.400;11.770;2023-10-31T09:50:15;15.50;77.10
14850;DHT22;7517;48.400;11.770;2023-10-31T09:52:43;15.50;76.70
14850;DHT22;7517;48.400;11.770;2023-10-31T09:55:12;15.50;77.40
14850;DHT22;7517;48.400;11.770;2023-10-31T09:57:40;15.50;76.90
14850;DHT22;7517;48.400;11.770;2023-10-31T10:00:09;15.50;77.20
14850;DHT22;7517;48.400;11.770;2023-10-31T10:02:37;15.60;77.00
14850;DHT22;7517;48.400;11.770;2023-10-31T10:05:04;15.60;76.80
14850;DHT22;7517;48.400;11.770;2023-10-31T10:07:35;15.60;76.70
14850;DHT22;7517;48.400;11.770;2023-10-31T10:10:03;15.60;76.90
14850;DHT22;7517;48.400;11.770;2023-10-31T10:12:31;15.60;77.00
14850;DHT22;7517;48.400;11.770;2023-10-31T10:14:59;15.60;77.00
14850;DHT22;7517;48.400;11.770;2023-10-31T10:17:26;15.60;76.80
14850;DHT22;7517;48.400;11.770;2023-10-31T10:20:05;15.60;76.30
14850;DHT22;7517;48.400;11.770;2023-10-31T10:22:39;15.60;76.10
14850;DHT22;7517;48.400;11.770;2023-10-31T10:25:08;15.60;75.80
14850;DHT22;7517;48.400;11.770;2023-10-31T10:27:37;15.60;75.90
14850;DHT22;7517;48.400;11.770;2023-10-31T10:30:08;15.60;77.00
14850;DHT22;7517;48.400;11.770;2023-10-31T10:32:36;15.60;76.00
14850;DHT22;7517;48.400;11.770;2023-10-31T10:35:04;15.60;75.90
14850;DHT22;7517;48.400;11.770;2023-10-31T10:37:38;15.60;75.80
14850;DHT22;7517;48.400;11.770;2023-10-31T10:40:07;15.60;75.20
14850;DHT22;7517;48.400;11.770;2023-10-31T10:42:45;15.60;75.60
14850;DHT22;7517;48.400;11.770;2023-10-31T10:45:14;15.60;75.60
14850;DHT22;7517;48.400;11.770;2023-10-31T10:47:46;15.60;75.60
14850;DHT22;7517;48.400;11.770;2023-10-31T10:50:15;15.60;75.40
14850;DHT22;7517;48.400;11.770;2023-10-31T10:52:50;15.60;75.50
14850;DHT22;7517;48.400;11.770;2023-10-31T10:55:28;15.60;75.90
14850;DHT22;7517;48.400;11.770;2023-10-31T10:58:01;15.60;76.10
14850;DHT22;7517;48.400;11.770;2023-10-31T11:00:32;15.60;75.90
14850;DHT22;7517;48.400;11.770;2023-10-31T11:03:00;15.60;76.00
14850;DHT22;7517;48.400;11.770;2023-10-31T11:05:28;15.70;76.20
14850;DHT22;7517;48.400;11.770;2023-10-31T11:07:59;15.70;75.90
14850;DHT22;7517;48.400;11.770;2023-10-31T11:10:29;15.70;75.70
14850;DHT22;7517;48.400;11.770;2023-10-31T11:12:58;15.70;75.80
14850;DHT22;7517;48.400;11.770;2023-10-31T11:15:25;15.70;75.80
14850;DHT22;7517;48.400;11.770;2023-10-31T11:17:55;15.80;76.00
14850;DHT22;7517;48.400;11.770;2023-10-31T11:20:24;15.80;76.10
14850;DHT22;7517;48.400;11.770;2023-10-31T11:22:55;15.80;75.90
14850;DHT22;7517;48.400;11.770;2023-10-31T11:25:25;15.80;75.40
14850;DHT22;7517;48.400;11.770;2023-10-31T11:27:53;15.80;75.10
14850;DHT22;7517;48.400;11.770;2023-10-31T11:30:28;15.80;75.50
14850;DHT22;7517;48.400;11.770;2023-10-31T11:32:58;15.90;75.70
14850;DHT22;7517;48.400;11.770;2023-10-31T11:35:29;15.90;75.80
14850;DHT22;7517;48.400;11.770;2023-10-31T11:38:03;15.90;75.60
14850;DHT22;7517;48.400;11.770;2023-10-31T11:40:31;15.90;75.70
14850;DHT22;7517;48.400;11.770;2023-10-31T11:43:02;15.90;75.20
14850;DHT22;7517;48.400;11.770;2023-10-31T11:45:34;16.00;74.60
14850;DHT22;7517;48.400;11.770;2023-10-31T11:48:03;16.00;74.30
14850;DHT22;7517;48.400;11.770;2023-10-31T11:50:34;16.00;74.60
14850;DHT22;7517;48.400;11.770;2023-10-31T11:53:04;16.00;74.50
14850;DHT22;7517;48.400;11.770;2023-10-31T11:55:34;16.00;74.60
14850;DHT22;7517;48.400;11.770;2023-10-31T11:58:16;16.00;74.60
14850;DHT22;7517;48.400;11.770;2023-10-31T12:00:45;16.00;74.30
14850;DHT22;7517;48.400;11.770;2023-10-31T12:03:16;16.10;74.70
14850;DHT22;7517;48.400;11.770;2023-10-31T12:05:54;16.10;74.80
14850;DHT22;7517;48.400;11.770;2023-10-31T12:08:29;16.10;74.60
14850;DHT22;7517;48.400;11.770;2023-10-31T12:11:06;16.10;74.20
14850;DHT22;7517;48.400;11.770;2023-10-31T12:13:36;16.20;74.10
14850;DHT22;7517;48.400;11.770;2023-10-31T12:16:04;16.20;74.20
14850;DHT22;7517;48.400;11.770;2023-10-31T12:18:33;16.20;74.20
14850;DHT22;7517;48.400;11.770;2023-10-31T12:21:02;16.20;74.10
14850;DHT22;7517;48.400;11.770;2023-10-31T12:23:31;16.30;74.00
14850;DHT22;7517;48.400;11.770;2023-10-31T12:25:58;16.30;73.90
14850;DHT22;7517;48.400;11.770;2023-10-31T12:28:26;16.30;73.50
14850;DHT22;7517;48.400;11.770;2023-10-31T12:30:55;16.30;72.70
14850;DHT22;7517;48.400;11.770;2023-10-31T12:33:25;16.30;73.30
14850;DHT22;7517;48.400;11.770;2023-10-31T12:35:57;16.40;73.30
14850;DHT22;7517;48.400;11.770;2023-10-31T12:38:25;16.40;73.20
14850;DHT22;7517;48.400;11.770;2023-10-31T12:40:55;16.40;73.00
14850;DHT22;7517;48.400;11.770;2023-10-31T12:43:25;16.40;73.20
14850;DHT22;7517;48.400;11.770;2023-10-31T12:45:53;16.40;73.60
14850;DHT22;7517;48.400;11.770;2023-10-31T12:48:24;16.40;72.90
14850;DHT22;7517;48.400;11.770;2023-10-31T12:51:06;16.50;72.60
14850;DHT22;7517;48.400;11.770;2023-10-31T12:53:48;16.50;72.80
14850;DHT22;7517;48.400;11.770;2023-10-31T12:56:39;16.50;72.50
14850;DHT22;7517;48.400;11.770;2023-10-31T12:59:09;16.50;72.60
14850;DHT22;7517;48.400;11.770;2023-10-31T13:01:43;16.60;73.00
14850;DHT22;7517;48.400;11.770;2023-10-31T13:04:11;16.60;72.40
14850;DHT22;7517;48.400;11.770;2023-10-31T13:06:38;16.60;72.20
14850;DHT22;7517;48.400;11.770;2023-10-31T13:09:06;16.60;72.10
14850;DHT22;7517;48.400;11.770;2023-10-31T13:11:41;16.60;72.40
14850;DHT22;7517;48.400;11.770;2023-10-31T13:14:08;16.60;72.40
14850;DHT22;7517;48.400;11.770;2023-10-31T13:16:36;16.60;72.40
14850;DHT22;7517;48.400;11.770;2023-10-31T13:19:04;16.70;72.00
14850;DHT22;7517;48.400;11.770;2023-10-31T13:21:31;16.60;71.40
14850;DHT22;7517;48.400;11.770;2023-10-31T13:23:58;16.70;71.10
14850;DHT22;7517;48.400;11.770;2023-10-31T13:26:26;16.70;71.40
14850;DHT22;7517;48.400;11.770;2023-10-31T13:28:54;16.70;71.70
14850;DHT22;7517;48.400;11.770;2023-10-31T13:31:22;16.70;71.10
14850;DHT22;7517;48.400;11.770;2023-10-31T13:33:50;16.80;71.10
14850;DHT22;7517;48.400;11.770;2023-10-31T13:36:17;16.80;71.20
14850;DHT22;7517;48.400;11.770;2023-10-31T13:38:46;16.80;70.40
14850;DHT22;7517;48.400;11.770;2023-10-31T13:41:15;16.80;70.60
14850;DHT22;7517;48.400;11.770;2023-10-31T13:43:42;16.80;70.90
14850;DHT22;7517;48.400;11.770;2023-10-31T13:46:11;16.70;70.90
14850;DHT22;7517;48.400;11.770;2023-10-31T13:48:38;16.80;71.20
14850;DHT22;7517;48.400;11.770;2023-10-31T13:51:06;16.80;70.90
14850;DHT22;7517;48.400;11.770;2023-10-31T13:53:33;16.80;70.10
14850;DHT22;7517;48.400;11.770;2023-10-31T13:56:03;16.80;69.90
14850;DHT22;7517;48.400;11.770;2023-10-31T13:58:31;16.80;69.80
14850;DHT22;7517;48.400;11.770;2023-10-31T14:00:58;16.80;70.20
14850;DHT22;7517;48.400;11.770;2023-10-31T14:03:27;16.80;70.60
14850;DHT22;7517;48.400;11.770;2023-10-31T14:05:55;16.80;70.40
14850;DHT22;7517;48.400;11.770;2023-10-31T14:08:22;16.80;70.50
14850;DHT22;7517;48.400;11.770;2023-10-31T14:10:50;16.80;70.30
14850;DHT22;7517;48.400;11.770;2023-10-31T14:13:18;16.80;70.20
14850;DHT22;7517;48.400;11.770;2023-10-31T14:15:46;16.80;70.90
14850;DHT22;7517;48.400;11.770;2023-10-31T14:18:13;16.70;70.90
14850;DHT22;7517;48.400;11.770;2023-10-31T14:20:43;16.70;71.00
14850;DHT22;7517;48.400;11.770;2023-10-31T14:23:10;16.70;71.00
14850;DHT22;7517;48.400;11.770;2023-10-31T14:25:37;16.70;71.30
14850;DHT22;7517;48.400;11.770;2023-10-31T14:28:05;16.70;71.10
14850;DHT22;7517;48.400;11.770;2023-10-31T14:30:34;16.70;70.80
14850;DHT22;7517;48.400;11.770;2023-10-31T14:33:01;16.70;71.10
14850;DHT22;7517;48.400;11.770;2023-10-31T14:35:29;16.70;71.20
14850;DHT22;7517;48.400;11.770;2023-10-31T14:37:57;16.60;71.00
14850;DHT22;7517;48.400;11.770;2023-10-31T14:40:25;16.70;71.00
14850;DHT22;7517;48.400;11.770;2023-10-31T14:42:52;16.70;71.10
14850;DHT22;7517;48.400;11.770;2023-10-31T14:45:20;16.60;71.20
14850;DHT22;7517;48.400;11.770;2023-10-31T14:47:47;16.60;71.30
14850;DHT22;7517;48.400;11.770;2023-10-31T14:50:14;16.60;71.60
14850;DHT22;7517;48.400;11.770;2023-10-31T14:52:41;16.60;71.60
14850;DHT22;7517;48.400;11.770;2023-10-31T14:55:10;16.70;71.90
14850;DHT22;7517;48.400;11.770;2023-10-31T14:57:38;16.60;71.70
14850;DHT22;7517;48.400;11.770;2023-10-31T15:00:06;16.60;71.50
14850;DHT22;7517;48.400;11.770;2023-10-31T15:02:37;16.70;71.40
14850;DHT22;7517;48.400;11.770;2023-10-31T15:05:06;16.70;71.30
14850;DHT22;7517;48.400;11.770;2023-10-31T15:07:35;16.60;71.30
14850;DHT22;7517;48.400;11.770;2023-10-31T15:10:03;16.60;71.50
14850;DHT22;7517;48.400;11.770;2023-10-31T15:12:32;16.60;71.50
14850;DHT22;7517;48.400;11.770;2023-10-31T15:15:00;16.60;71.40
14850;DHT22;7517;48.400;11.770;2023-10-31T15:17:27;16.60;71.80
14850;DHT22;7517;48.400;11.770;2023-10-31T15:19:55;16.60;72.10
14850;DHT22;7517;48.400;11.770;2023-10-31T15:22:22;16.60;71.90
14850;DHT22;7517;48.400;11.770;2023-10-31T15:24:49;16.60;71.70
14850;DHT22;7517;48.400;11.770;2023-10-31T15:27:16;16.60;71.70
14850;DHT22;7517;48.400;11.770;2023-10-31T15:29:45;16.60;72.00
14850;DHT22;7517;48.400;11.770;2023-10-31T15:32:13;16.60;72.00
14850;DHT22;7517;48.400;11.770;2023-10-31T15:34:40;16.60;72.00
14850;DHT22;7517;48.400;11.770;2023-10-31T15:37:08;16.60;71.80